Time;durP1;ratioP1;P1;durP2;ratioP2;P2;SDS_P1;SDS_P2;PMS_P1;PMS_P2;Temp;Humidity;BMP_temperature;BMP_pressure;BME280_temperature;BME280_humidity;BME280_pressure;Samples;Min_cycle;Max_cycle;Signal;HPM_P1;HPM_P2
2023/07/15 00:01:59;;;;;;;2.70;2.50;;;25.40;39.60;;;;;;20629;6858;117625;-77
2023/07/15 00:04:25;;;;;;;3.05;2.85;;;25.10;40.00;;;;;;20456;6858;310479;-78
2023/07/15 00:06:51;;;;;;;3.27;3.03;;;25.10;40.30;;;;;;20640;6858;118020;-78
2023/07/15 00:09:16;;;;;;;3.17;2.90;;;25.10;40.20;;;;;;20456;6858;312696;-77
2023/07/15 00:11:42;;;;;;;3.35;3.15;;;25.20;41.10;;;;;;20472;6858;278661;-77
2023/07/15 00:14:08;;;;;;;3.33;3.00;;;25.50;39.80;;;;;;20683;6858;117515;-78
2023/07/15 00:16:34;;;;;;;3.20;3.00;;;25.40;39.80;;;;;;20443;6858;307951;-77
2023/07/15 00:18:59;;;;;;;3.20;3.00;;;25.40;39.90;;;;;;20454;6858;312270;-77
2023/07/15 00:21:24;;;;;;;3.12;2.92;;;25.60;39.50;;;;;;20483;6858;338219;-77
2023/07/15 00:23:53;;;;;;;5.03;3.03;;;25.80;39.50;;;;;;20681;6858;117551;-78
2023/07/15 00:26:15;;;;;;;3.10;2.90;;;25.50;39.50;;;;;;20462;6858;283261;-78
2023/07/15 00:28:41;;;;;;;3.37;3.08;;;25.50;40.20;;;;;;20448;6858;342926;-77
2023/07/15 00:31:10;;;;;;;3.40;3.20;;;25.60;40.10;;;;;;20481;6858;287984;-78
2023/07/15 00:33:37;;;;;;;3.73;3.10;;;25.70;40.30;;;;;;20463;6858;284009;-78
2023/07/15 00:36:03;;;;;;;2.90;2.80;;;25.70;40.30;;;;;;20660;6858;117989;-78
2023/07/15 00:38:29;;;;;;;3.35;3.05;;;25.30;40.50;;;;;;20474;6858;294136;-78
2023/07/15 00:40:54;;;;;;;3.40;3.20;;;25.20;41.10;;;;;;20454;6856;307862;-78
2023/07/15 00:44:00;;;;;;;3.77;3.10;;;25.20;41.40;;;;;;20689;6857;118671;-77
2023/07/15 00:46:41;;;;;;;5.17;3.33;;;24.90;41.40;;;;;;20682;6858;121435;-77
2023/07/15 00:49:21;;;;;;;3.60;3.30;;;24.30;41.90;;;;;;20473;6858;278672;-78
2023/07/15 00:52:08;;;;;;;4.23;3.67;;;24.30;42.90;;;;;;20671;6858;117529;-78
2023/07/15 00:54:36;;;;;;;3.60;3.40;;;24.20;42.80;;;;;;20646;6858;123394;-78
2023/07/15 00:57:01;;;;;;;3.57;3.37;;;23.90;43.10;;;;;;20644;6858;117907;-78
2023/07/15 00:59:27;;;;;;;3.93;3.63;;;23.60;43.40;;;;;;20469;6858;334036;-77
2023/07/15 01:01:53;;;;;;;3.47;3.28;;;23.80;43.50;;;;;;20677;6858;117859;-77
2023/07/15 01:04:19;;;;;;;3.67;3.30;;;23.80;43.50;;;;;;20671;6858;118165;-76
2023/07/15 01:06:45;;;;;;;4.03;3.72;;;23.70;43.60;;;;;;20435;6858;337472;-77
2023/07/15 01:09:10;;;;;;;3.97;3.70;;;23.90;44.00;;;;;;20691;6858;117661;-77
2023/07/15 01:11:36;;;;;;;4.55;4.12;;;23.90;43.60;;;;;;20469;6858;308697;-77
2023/07/15 01:14:02;;;;;;;4.25;3.90;;;24.00;43.60;;;;;;20688;6858;119962;-77
2023/07/15 01:16:28;;;;;;;4.20;4.00;;;24.00;43.30;;;;;;20474;6858;282876;-77
2023/07/15 01:18:53;;;;;;;3.87;3.67;;;24.10;43.40;;;;;;20671;6858;120383;-77
2023/07/15 01:21:19;;;;;;;3.70;3.40;;;24.00;43.20;;;;;;20460;6858;312560;-77
2023/07/15 01:23:44;;;;;;;3.60;3.20;;;24.10;43.20;;;;;;20672;6858;120214;-77
2023/07/15 01:26:11;;;;;;;3.10;3.00;;;23.80;43.30;;;;;;20675;6858;117916;-77
2023/07/15 01:28:37;;;;;;;3.80;3.20;;;23.80;43.30;;;;;;20677;6858;123319;-77
2023/07/15 01:31:03;;;;;;;3.22;3.03;;;23.90;43.70;;;;;;20443;6858;341873;-77
2023/07/15 01:33:29;;;;;;;3.00;2.80;;;23.80;43.60;;;;;;20674;6858;117437;-77
2023/07/15 01:35:54;;;;;;;3.30;3.10;;;23.80;43.30;;;;;;20464;6858;337742;-77
2023/07/15 01:38:19;;;;;;;3.20;3.00;;;24.10;43.60;;;;;;20474;6858;278237;-77
2023/07/15 01:40:45;;;;;;;3.28;3.08;;;24.40;42.90;;;;;;20449;6858;308212;-77
2023/07/15 01:43:11;;;;;;;3.30;3.10;;;24.60;42.60;;;;;;20682;6858;120259;-77
2023/07/15 01:45:39;;;;;;;3.53;3.10;;;24.50;42.80;;;;;;20471;6858;279222;-77
2023/07/15 01:48:04;;;;;;;3.93;3.40;;;24.50;42.80;;;;;;20454;6858;278985;-78
2023/07/15 01:50:28;;;;;;;3.17;2.97;;;24.70;42.70;;;;;;20673;6858;120330;-77
2023/07/15 01:52:54;;;;;;;3.40;3.20;;;24.50;42.70;;;;;;20442;6856;281491;-77
2023/07/15 01:55:19;;;;;;;3.83;3.50;;;24.40;43.00;;;;;;20453;6857;337797;-77
2023/07/15 01:57:46;;;;;;;3.50;3.22;;;24.60;42.80;;;;;;20457;6858;308296;-77
2023/07/15 02:00:16;;;;;;;3.53;3.33;;;24.60;42.80;;;;;;20673;6858;119611;-77
2023/07/15 02:02:37;;;;;;;3.53;3.33;;;24.40;43.00;;;;;;20443;6858;338669;-77
2023/07/15 02:05:04;;;;;;;3.23;3.03;;;24.10;43.40;;;;;;20655;6858;120098;-77
2023/07/15 02:07:29;;;;;;;4.18;3.80;;;24.10;43.40;;;;;;20455;6858;341953;-77
2023/07/15 02:09:55;;;;;;;4.40;3.80;;;24.10;43.90;;;;;;20672;6858;117903;-77
2023/07/15 02:12:20;;;;;;;3.83;3.50;;;23.80;43.80;;;;;;20436;6858;309516;-77
2023/07/15 02:14:46;;;;;;;3.53;3.30;;;23.80;44.40;;;;;;20651;6858;123312;-77
2023/07/15 02:17:12;;;;;;;3.65;3.40;;;23.70;44.90;;;;;;20463;6858;308811;-77
2023/07/15 02:19:38;;;;;;;3.67;3.47;;;23.70;44.90;;;;;;20673;6858;123848;-77
2023/07/15 02:22:04;;;;;;;4.10;3.70;;;23.50;44.70;;;;;;20466;6858;278308;-77
2023/07/15 02:24:29;;;;;;;4.10;3.80;;;23.50;45.00;;;;;;20464;6858;308570;-77
2023/07/15 02:26:55;;;;;;;3.60;3.40;;;23.70;44.80;;;;;;20663;6858;117504;-77
2023/07/15 02:29:21;;;;;;;3.63;3.43;;;23.20;45.10;;;;;;20662;6858;117676;-77
2023/07/15 02:31:46;;;;;;;3.83;3.62;;;23.10;45.00;;;;;;20451;6858;279810;-77
2023/07/15 02:34:13;;;;;;;4.10;3.80;;;23.20;45.60;;;;;;20445;6858;313011;-77
2023/07/15 02:36:38;;;;;;;3.77;3.57;;;23.40;45.30;;;;;;20657;6858;117924;-77
2023/07/15 02:39:06;;;;;;;3.87;3.50;;;23.20;45.20;;;;;;20643;6858;118137;-76
2023/07/15 02:41:32;;;;;;;3.90;3.60;;;22.90;45.60;;;;;;20449;6858;313275;-77
2023/07/15 02:43:57;;;;;;;4.05;3.75;;;23.00;46.20;;;;;;20464;6858;311639;-77
2023/07/15 02:46:23;;;;;;;3.87;3.67;;;23.20;45.70;;;;;;20678;6858;117484;-77
2023/07/15 02:48:48;;;;;;;3.50;3.20;;;23.10;45.50;;;;;;20659;6858;117886;-77
2023/07/15 02:51:15;;;;;;;3.83;3.22;;;22.60;46.20;;;;;;20680;6858;118379;-77
2023/07/15 02:53:40;;;;;;;3.93;3.40;;;22.50;46.10;;;;;;20678;6858;118651;-77
2023/07/15 02:56:06;;;;;;;3.90;3.70;;;22.40;46.40;;;;;;20461;6858;325067;-77
2023/07/15 02:58:31;;;;;;;3.33;3.12;;;22.60;46.90;;;;;;20680;6858;117512;-76
2023/07/15 03:00:57;;;;;;;3.60;3.40;;;22.60;46.60;;;;;;20446;6858;307956;-77
2023/07/15 03:03:23;;;;;;;3.47;3.27;;;22.80;46.40;;;;;;20680;6858;117910;-77
2023/07/15 03:05:49;;;;;;;3.63;3.23;;;22.80;46.40;;;;;;20680;6856;121253;-77
2023/07/15 03:08:14;;;;;;;3.80;3.50;;;22.60;46.60;;;;;;20681;6857;123359;-77
2023/07/15 03:10:43;;;;;;;3.70;3.40;;;22.40;47.20;;;;;;20677;6858;117469;-77
2023/07/15 03:13:09;;;;;;;3.80;3.50;;;22.30;47.00;;;;;;20677;6858;118100;-77
2023/07/15 03:15:35;;;;;;;4.10;3.80;;;22.20;47.10;;;;;;20468;6858;337945;-77
2023/07/15 03:18:02;;;;;;;3.45;3.25;;;22.60;47.30;;;;;;20672;6858;117464;-77
2023/07/15 03:20:26;;;;;;;3.73;3.50;;;22.50;47.10;;;;;;20672;6858;118259;-77
2023/07/15 03:22:54;;;;;;;4.05;3.75;;;22.60;47.40;;;;;;20440;6858;338918;-80
2023/07/15 03:25:21;;;;;;;3.73;3.50;;;22.60;47.40;;;;;;20673;6858;117643;-77
2023/07/15 03:27:47;;;;;;;4.10;3.80;;;22.60;47.00;;;;;;20678;6858;117854;-77
2023/07/15 03:30:14;;;;;;;3.83;3.40;;;22.40;47.00;;;;;;20686;6858;118753;-77
2023/07/15 03:32:39;;;;;;;4.30;3.90;;;22.30;47.30;;;;;;20486;6858;307154;-77
2023/07/15 03:35:05;;;;;;;3.78;3.58;;;22.50;47.40;;;;;;20478;6858;282539;-77
2023/07/15 03:37:33;;;;;;;4.17;3.87;;;23.20;46.40;;;;;;20487;6858;278085;-77
2023/07/15 03:39:59;;;;;;;3.67;3.37;;;23.00;46.30;;;;;;20709;6858;117399;-77
2023/07/15 03:42:25;;;;;;;3.40;3.20;;;23.00;46.30;;;;;;20721;6858;117639;-77
2023/07/15 03:44:50;;;;;;;3.35;3.15;;;22.70;46.70;;;;;;20704;6858;117536;-77
2023/07/15 03:47:16;;;;;;;3.77;3.50;;;22.40;47.00;;;;;;20721;6858;118188;-77
2023/07/15 03:49:43;;;;;;;3.80;3.50;;;22.10;48.00;;;;;;20705;6858;117911;-76
2023/07/15 03:52:08;;;;;;;3.85;3.50;;;22.00;47.50;;;;;;20465;6858;308939;-77
2023/07/15 03:54:33;;;;;;;3.50;3.30;;;22.30;48.10;;;;;;20476;6858;308939;-77
2023/07/15 03:56:59;;;;;;;3.50;3.30;;;22.70;47.60;;;;;;20665;6858;121398;-77
2023/07/15 03:59:24;;;;;;;3.53;3.30;;;22.70;47.30;;;;;;20473;6858;279889;-77
2023/07/15 04:01:50;;;;;;;3.57;3.43;;;22.80;47.40;;;;;;20465;6858;282838;-77
2023/07/15 04:04:15;;;;;;;3.40;3.20;;;23.10;47.10;;;;;;20680;6858;117824;-77
2023/07/15 04:06:41;;;;;;;3.40;3.20;;;22.90;47.00;;;;;;20452;6858;278283;-77
2023/07/15 04:09:07;;;;;;;3.65;3.28;;;23.00;47.30;;;;;;20678;6858;121985;-77
2023/07/15 04:11:32;;;;;;;3.40;3.20;;;22.80;47.10;;;;;;20676;6858;117489;-77
2023/07/15 04:13:58;;;;;;;3.75;3.47;;;22.60;47.40;;;;;;20467;6858;277851;-77
2023/07/15 04:16:25;;;;;;;3.30;3.10;;;22.80;47.70;;;;;;20676;6856;117616;-80
2023/07/15 04:18:50;;;;;;;3.40;3.20;;;22.70;47.60;;;;;;20460;6857;307903;-78
2023/07/15 04:21:16;;;;;;;3.60;3.30;;;22.80;47.20;;;;;;20684;6858;121964;-77
2023/07/15 04:23:42;;;;;;;3.95;3.65;;;22.80;47.10;;;;;;20473;6858;279226;-77
2023/07/15 04:26:08;;;;;;;3.63;3.33;;;23.20;46.80;;;;;;20478;6858;283493;-77
2023/07/15 04:28:33;;;;;;;3.28;3.00;;;23.30;46.90;;;;;;20466;6858;348469;-77
2023/07/15 04:31:00;;;;;;;3.57;3.37;;;23.70;46.10;;;;;;20431;6858;308194;-77
2023/07/15 04:33:26;;;;;;;3.30;3.10;;;23.70;46.10;;;;;;20451;6858;312614;-76
2023/07/15 04:35:52;;;;;;;3.10;2.90;;;23.90;45.90;;;;;;20510;6858;118892;-77
2023/07/15 04:38:20;;;;;;;3.23;3.03;;;23.70;46.60;;;;;;20363;6858;316562;-77
2023/07/15 04:40:45;;;;;;;3.70;3.40;;;23.60;46.40;;;;;;20394;6858;337421;-77
2023/07/15 04:43:22;;;;;;;3.37;3.17;;;23.90;46.10;;;;;;20515;6648;271294;-96
2023/07/15 04:45:56;;;;;;;2.83;2.73;;;24.00;45.90;;;;;;20835;6761;67180;-96
2023/07/15 04:48:28;;;;;;;2.80;2.70;;;23.80;46.00;;;;;;20722;6761;123769;-80
2023/07/15 04:51:04;;;;;;;3.30;3.10;;;23.50;46.50;;;;;;20570;6771;307754;-77
2023/07/15 04:53:43;;;;;;;3.40;3.20;;;23.70;47.20;;;;;;20709;6783;117115;-71
2023/07/15 04:56:15;;;;;;;3.77;3.00;;;23.60;47.00;;;;;;20491;6778;281716;-77
2023/07/15 04:58:51;;;;;;;3.50;3.20;;;23.80;47.40;;;;;;20518;6781;306535;-82
2023/07/15 05:01:26;;;;;;;3.40;3.20;;;24.10;46.70;;;;;;20796;6772;117331;-77
2023/07/15 05:04:02;;;;;;;2.97;2.77;;;24.00;46.50;;;;;;20625;6772;118629;-84
2023/07/15 05:06:38;;;;;;;3.30;3.10;;;23.80;46.60;;;;;;20765;6781;121770;-77
2023/07/15 05:09:13;;;;;;;3.47;3.27;;;23.60;46.70;;;;;;20534;6778;277021;-77
2023/07/15 05:11:49;;;;;;;2.95;2.85;;;23.90;46.60;;;;;;20583;6773;277904;-77
2023/07/15 05:14:25;;;;;;;3.00;2.90;;;24.60;45.30;;;;;;20416;6773;339903;-77
2023/07/15 05:17:02;;;;;;;3.33;3.03;;;24.60;45.20;;;;;;20683;6759;119677;-79
2023/07/15 05:19:36;;;;;;;4.50;2.87;;;24.50;45.30;;;;;;20693;6783;119214;-74
2023/07/15 05:22:13;;;;;;;3.10;2.90;;;24.50;45.60;;;;;;20511;6771;277826;-76
2023/07/15 05:24:49;;;;;;;3.13;2.83;;;24.40;45.50;;;;;;20631;6813;118165;-75
2023/07/15 05:27:24;;;;;;;4.00;2.90;;;24.40;45.20;;;;;;20681;6784;118960;-76
2023/07/15 05:30:02;;;;;;;3.20;3.00;;;24.30;45.10;;;;;;20510;6786;309139;-77
2023/07/15 05:32:35;;;;;;;2.60;2.50;;;24.50;44.30;;;;;;20654;6808;117650;-72
2023/07/15 05:35:10;;;;;;;3.00;2.77;;;24.50;44.40;;;;;;20501;6796;119566;-75
2023/07/15 05:37:46;;;;;;;4.10;3.00;;;24.40;44.80;;;;;;20448;6786;278287;-81
2023/07/15 05:40:22;;;;;;;3.15;2.90;;;24.60;44.90;;;;;;20481;6795;336100;-76
2023/07/15 05:42:57;;;;;;;3.37;3.17;;;25.10;44.00;;;;;;20620;6794;120329;-76
2023/07/15 05:45:33;;;;;;;3.20;3.00;;;25.10;43.90;;;;;;20271;6793;309332;-76
2023/07/15 05:48:09;;;;;;;2.90;2.70;;;25.60;43.40;;;;;;20411;6806;312234;-75
2023/07/15 05:50:45;;;;;;;3.50;3.20;;;25.50;43.30;;;;;;20465;6790;340765;-75
2023/07/15 05:53:20;;;;;;;3.27;3.03;;;25.80;42.30;;;;;;20479;6831;278298;-79
2023/07/15 05:55:56;;;;;;;3.23;3.00;;;26.10;41.90;;;;;;20305;6790;316973;-76
2023/07/15 05:58:35;;;;;;;2.67;2.57;;;26.30;41.90;;;;;;20639;6773;118296;-76
2023/07/15 06:01:07;;;;;;;3.43;3.23;;;26.20;42.20;;;;;;20645;6780;119015;-75
2023/07/15 06:03:43;;;;;;;2.90;2.70;;;25.90;42.50;;;;;;20612;6805;118400;-75
2023/07/15 06:06:18;;;;;;;3.10;2.90;;;25.70;42.80;;;;;;20372;6808;287919;-77
2023/07/15 06:08:55;;;;;;;3.83;2.87;;;26.10;42.30;;;;;;20543;6795;118875;-75
2023/07/15 06:11:30;;;;;;;3.20;3.00;;;26.10;42.30;;;;;;20482;6795;308433;-74
2023/07/15 06:14:06;;;;;;;3.77;2.90;;;26.50;42.40;;;;;;20367;6802;311366;-74
2023/07/15 06:16:42;;;;;;;2.70;2.60;;;26.90;40.80;;;;;;20611;6794;117720;-75
2023/07/15 06:19:18;;;;;;;4.27;2.73;;;27.30;39.60;;;;;;20490;6794;308760;-73
2023/07/15 06:21:54;;;;;;;3.27;2.97;;;27.30;39.60;;;;;;20530;6779;307718;-73
2023/07/15 06:24:31;;;;;;;4.37;2.97;;;28.50;38.10;;;;;;20294;6800;315273;-75
2023/07/15 06:27:07;;;;;;;2.80;2.60;;;28.40;37.90;;;;;;20482;6785;307618;-72
2023/07/15 06:29:43;;;;;;;3.03;2.80;;;29.10;37.50;;;;;;20556;6770;308022;-72
2023/07/15 06:32:18;;;;;;;3.10;2.67;;;29.80;37.40;;;;;;20663;6801;117330;-72
2023/07/15 06:34:59;;;;;;;3.43;2.70;;;30.30;37.50;;;;;;20502;6795;121053;-70
2023/07/15 06:37:30;;;;;;;2.70;2.43;;;30.50;37.50;;;;;;20709;6792;120316;-70
2023/07/15 06:40:09;;;;;;;3.30;3.00;;;30.80;37.10;;;;;;20678;6796;119438;-70
2023/07/15 06:42:45;;;;;;;2.77;2.40;;;31.20;36.60;;;;;;20662;6793;117445;-70
2023/07/15 06:45:21;;;;;;;2.77;2.60;;;31.60;36.10;;;;;;20583;6777;121492;-70
2023/07/15 06:47:56;;;;;;;3.23;2.80;;;32.00;35.90;;;;;;20731;6781;117026;-70
2023/07/15 06:50:32;;;;;;;2.73;2.53;;;32.30;35.40;;;;;;20526;6778;278201;-70
2023/07/15 06:53:12;;;;;;;2.90;2.70;;;33.10;32.10;;;;;;20651;6797;119065;-70
2023/07/15 06:55:50;;;;;;;2.77;2.50;;;33.50;32.40;;;;;;20315;6800;310531;-71
2023/07/15 06:58:20;;;;;;;2.77;2.57;;;34.10;30.30;;;;;;20745;6771;118849;-71
2023/07/15 07:00:55;;;;;;;5.85;2.90;;;34.40;30.80;;;;;;20569;6762;308014;-70
2023/07/15 07:03:31;;;;;;;3.15;2.83;;;34.90;29.90;;;;;;20544;6767;310901;-70
2023/07/15 07:06:07;;;;;;;3.12;2.92;;;35.40;30.00;;;;;;20544;6768;336353;-73
2023/07/15 07:08:42;;;;;;;4.40;2.83;;;35.80;29.10;;;;;;20550;6766;336549;-74
2023/07/15 07:11:21;;;;;;;3.12;2.72;;;36.10;28.40;;;;;;20529;6775;337173;-75
2023/07/15 07:13:53;;;;;;;2.87;2.77;;;36.20;28.30;;;;;;20756;6764;117183;-75
2023/07/15 07:16:30;;;;;;;3.30;3.00;;;36.00;29.00;;;;;;20554;6766;278304;-75
2023/07/15 07:19:08;;;;;;;2.80;2.60;;;35.90;28.90;;;;;;20756;6767;117658;-76
2023/07/15 07:21:42;;;;;;;2.97;2.72;;;35.70;29.10;;;;;;20472;6767;328596;-75
2023/07/15 07:24:17;;;;;;;3.03;2.75;;;35.70;28.90;;;;;;20435;6770;314018;-72
2023/07/15 07:26:52;;;;;;;3.17;2.97;;;35.80;29.10;;;;;;20509;6768;311020;-73
2023/07/15 07:29:28;;;;;;;3.08;2.85;;;35.90;29.00;;;;;;20529;6767;336894;-73
2023/07/15 07:32:04;;;;;;;4.27;2.70;;;35.90;29.60;;;;;;20762;6771;117240;-72
2023/07/15 07:34:39;;;;;;;3.53;3.00;;;35.60;29.70;;;;;;20434;6767;309664;-73
2023/07/15 07:37:15;;;;;;;2.90;2.70;;;35.40;29.90;;;;;;20493;6781;306578;-74
2023/07/15 07:39:50;;;;;;;3.67;2.80;;;35.50;30.00;;;;;;20449;6772;279758;-73
2023/07/15 07:42:26;;;;;;;2.83;2.67;;;35.60;29.50;;;;;;20492;6775;312601;-74
2023/07/15 07:45:05;;;;;;;2.83;2.73;;;35.60;29.70;;;;;;20545;6792;118286;-74
2023/07/15 07:47:41;;;;;;;3.17;2.97;;;35.30;30.00;;;;;;20701;6776;117069;-74
2023/07/15 07:50:19;;;;;;;4.70;3.00;;;34.80;30.50;;;;;;20475;6799;278069;-74
2023/07/15 07:52:54;;;;;;;3.40;2.67;;;34.90;30.60;;;;;;20481;6783;279427;-75
2023/07/15 07:55:27;;;;;;;3.30;2.97;;;35.20;30.40;;;;;;20346;6802;308520;-76
2023/07/15 07:58:03;;;;;;;2.97;2.80;;;35.50;29.80;;;;;;20531;6792;307159;-74
2023/07/15 08:00:39;;;;;;;2.73;2.53;;;35.70;29.80;;;;;;20733;6799;120868;-73
2023/07/15 08:03:14;;;;;;;3.53;2.70;;;35.60;30.00;;;;;;20698;6781;120385;-75
2023/07/15 08:05:50;;;;;;;4.12;2.83;;;35.30;30.00;;;;;;20326;6780;309516;-73
2023/07/15 08:08:27;;;;;;;2.90;2.70;;;35.50;30.30;;;;;;20567;6764;320307;-73
2023/07/15 08:11:02;;;;;;;4.30;2.90;;;35.80;29.80;;;;;;20750;6765;117005;-72
2023/07/15 08:13:39;;;;;;;3.00;2.70;;;35.80;29.70;;;;;;20555;6764;307317;-72
2023/07/15 08:16:29;;;;;;;4.83;2.70;;;36.00;30.10;;;;;;20814;6752;117367;-72
2023/07/15 08:19:06;;;;;;;3.10;2.80;;;36.20;29.30;;;;;;20526;6773;313116;-72
2023/07/15 08:21:41;;;;;;;3.50;2.90;;;36.20;29.30;;;;;;20776;6762;117044;-72
2023/07/15 08:24:17;;;;;;;3.17;2.97;;;36.20;30.00;;;;;;20697;6777;117234;-72
2023/07/15 08:26:54;;;;;;;4.87;2.70;;;36.00;29.70;;;;;;20684;6777;117978;-72
2023/07/15 08:29:31;;;;;;;2.90;2.60;;;36.30;28.20;;;;;;20550;6772;305274;-72
2023/07/15 08:32:07;;;;;;;3.40;2.80;;;36.30;28.20;;;;;;20730;6777;118035;-72
2023/07/15 08:35:02;;;;;;;2.87;2.67;;;36.40;28.20;;;;;;20613;6778;119348;-72
2023/07/15 08:37:37;;;;;;;3.12;2.92;;;36.20;28.50;;;;;;20841;6761;117625;-73
2023/07/15 08:40:13;;;;;;;3.08;2.85;;;36.10;28.70;;;;;;20616;6761;336566;-74
2023/07/15 08:42:49;;;;;;;2.77;2.60;;;36.40;27.40;;;;;;20676;6794;118497;-76
2023/07/15 08:45:26;;;;;;;6.77;3.10;;;36.70;27.40;;;;;;20363;6791;279907;-73
2023/07/15 08:48:01;;;;;;;3.00;2.70;;;36.90;27.10;;;;;;20521;6787;277934;-74
2023/07/15 08:50:37;;;;;;;3.00;2.80;;;37.50;27.00;;;;;;20706;6791;123129;-74
2023/07/15 08:53:15;;;;;;;2.47;2.37;;;37.50;27.10;;;;;;20645;6808;118468;-74
2023/07/15 08:55:50;;;;;;;2.70;2.50;;;37.60;27.30;;;;;;20313;6801;310771;-74
2023/07/15 08:58:26;;;;;;;2.93;2.73;;;37.50;27.00;;;;;;20553;6771;280313;-74
2023/07/15 09:01:01;;;;;;;3.70;2.58;;;37.90;26.50;;;;;;20536;6769;312121;-73
2023/07/15 09:03:37;;;;;;;2.80;2.70;;;38.10;25.90;;;;;;20539;6769;312419;-74
2023/07/15 09:06:13;;;;;;;2.67;2.50;;;38.30;26.10;;;;;;20807;6754;123183;-74
2023/07/15 09:08:51;;;;;;;2.87;2.67;;;38.00;25.80;;;;;;20793;6754;117367;-77
2023/07/15 09:11:39;;;;;;;3.43;2.60;;;37.80;25.70;;;;;;20808;6754;118392;-74
2023/07/15 09:14:17;;;;;;;2.60;2.40;;;37.60;25.90;;;;;;20537;6754;310618;-77
2023/07/15 09:16:52;;;;;;;2.65;2.37;;;37.80;25.50;;;;;;20560;6759;336619;-74
2023/07/15 09:19:29;;;;;;;2.50;2.30;;;38.20;25.40;;;;;;20603;6759;303751;-74
2023/07/15 09:22:04;;;;;;;2.33;2.22;;;38.80;23.90;;;;;;20635;6740;308295;-74
2023/07/15 09:24:40;;;;;;;2.40;2.30;;;38.80;23.80;;;;;;20551;6740;314034;-74
2023/07/15 09:27:15;;;;;;;2.47;2.30;;;38.90;23.20;;;;;;20846;6740;116919;-74
2023/07/15 09:29:52;;;;;;;2.43;2.23;;;38.80;23.20;;;;;;20642;6740;277627;-76
2023/07/15 09:32:27;;;;;;;2.33;2.22;;;38.80;23.20;;;;;;20642;6740;307006;-74
2023/07/15 09:35:03;;;;;;;2.20;2.10;;;39.00;24.00;;;;;;20719;6740;119251;-74
2023/07/15 09:37:39;;;;;;;2.60;2.40;;;38.90;23.10;;;;;;20643;6740;315131;-74
2023/07/15 09:40:15;;;;;;;2.20;2.10;;;38.90;23.10;;;;;;20857;6740;121596;-74
2023/07/15 09:42:51;;;;;;;2.62;2.42;;;38.70;23.80;;;;;;20623;6740;277092;-75
2023/07/15 09:45:36;;;;;;;6.97;2.40;;;38.80;23.30;;;;;;20491;6740;279047;-75
2023/07/15 09:48:16;;;;;;;3.35;2.10;;;39.00;23.90;;;;;;20640;6740;280666;-75
2023/07/15 09:50:52;;;;;;;2.45;2.30;;;39.40;23.60;;;;;;20762;6740;117500;-74
2023/07/15 09:53:27;;;;;;;2.40;2.10;;;39.40;23.70;;;;;;20841;6740;118939;-74
2023/07/15 09:56:03;;;;;;;2.67;2.30;;;39.10;23.60;;;;;;20837;6740;117854;-73
2023/07/15 09:58:48;;;;;;;2.07;1.97;;;38.90;23.40;;;;;;20830;6740;117599;-72
2023/07/15 10:01:14;;;;;;;2.50;2.17;;;38.70;23.30;;;;;;20807;6740;116972;-74
2023/07/15 10:03:53;;;;;;;5.53;2.27;;;38.50;23.70;;;;;;20808;6740;116937;-72
2023/07/15 10:06:29;;;;;;;2.57;2.47;;;38.40;23.60;;;;;;20833;6740;120757;-72
2023/07/15 10:09:04;;;;;;;2.58;2.40;;;38.40;24.00;;;;;;20752;6740;117090;-72
2023/07/15 10:11:41;;;;;;;2.43;2.33;;;38.90;24.30;;;;;;20623;6740;277208;-72
2023/07/15 10:14:18;;;;;;;2.20;2.10;;;38.90;24.20;;;;;;20760;6740;117662;-74
2023/07/15 10:17:14;;;;;;;2.20;2.10;;;39.10;24.10;;;;;;20822;6739;117460;-72
2023/07/15 10:19:51;;;;;;;3.20;2.30;;;39.20;24.10;;;;;;20624;6740;310289;-74
2023/07/15 10:22:27;;;;;;;2.40;2.20;;;39.50;23.30;;;;;;20622;6740;307065;-73
2023/07/15 10:25:03;;;;;;;14.55;13.52;;;40.00;23.10;;;;;;20706;6740;123398;-71
2023/07/15 10:27:38;;;;;;;2.10;2.00;;;40.00;22.50;;;;;;20623;6740;305903;-72
2023/07/15 10:30:22;;;;;;;2.77;2.00;;;40.10;22.60;;;;;;20854;6740;117611;-72
2023/07/15 10:33:07;;;;;;;2.30;2.10;;;40.10;22.70;;;;;;20600;6740;311937;-73
2023/07/15 10:35:41;;;;;;;1.90;1.80;;;40.20;22.00;;;;;;20633;6740;118004;-71
2023/07/15 10:38:21;;;;;;;2.20;2.10;;;40.30;21.60;;;;;;20560;6740;327401;-72
2023/07/15 10:41:01;;;;;;;3.00;2.20;;;40.30;21.60;;;;;;20489;6740;306694;-71
2023/07/15 10:43:35;;;;;;;3.60;2.00;;;40.50;21.40;;;;;;20596;6740;311453;-71
2023/07/15 10:46:10;;;;;;;2.20;2.07;;;40.70;21.60;;;;;;20569;6740;277153;-70
2023/07/15 10:48:47;;;;;;;2.97;2.10;;;40.70;21.00;;;;;;20802;6740;117602;-70
2023/07/15 10:51:22;;;;;;;2.23;2.03;;;40.70;21.00;;;;;;20597;6740;280078;-71
2023/07/15 10:53:58;;;;;;;2.27;2.17;;;40.60;21.40;;;;;;20514;6740;279909;-70
2023/07/15 10:56:33;;;;;;;2.17;2.00;;;40.70;21.30;;;;;;20571;6740;282690;-71
2023/07/15 10:59:09;;;;;;;2.20;2.10;;;40.80;20.50;;;;;;20571;6740;276772;-72
2023/07/15 11:01:45;;;;;;;2.05;1.95;;;41.00;21.00;;;;;;20507;6740;340685;-75
2023/07/15 11:04:24;;;;;;;2.00;1.90;;;41.00;21.00;;;;;;20552;6740;283997;-72
2023/07/15 11:06:59;;;;;;;3.87;2.20;;;41.10;21.10;;;;;;20784;6740;126759;-72
2023/07/15 11:09:32;;;;;;;2.00;1.90;;;41.00;21.40;;;;;;20566;6740;317407;-74
2023/07/15 11:12:08;;;;;;;2.22;2.12;;;41.00;21.50;;;;;;20763;6740;117119;-71
2023/07/15 11:14:44;;;;;;;2.10;1.90;;;40.90;21.50;;;;;;20696;6740;118468;-74
2023/07/15 11:17:20;;;;;;;2.43;2.33;;;40.60;22.00;;;;;;20876;6740;117240;-74
2023/07/15 11:19:56;;;;;;;3.03;2.00;;;40.60;22.00;;;;;;20812;6740;69377;-81
2023/07/15 11:22:32;;;;;;;2.22;2.12;;;40.50;21.50;;;;;;20711;6740;120543;-78
2023/07/15 11:25:15;;;;;;;2.00;1.90;;;40.50;21.50;;;;;;20505;6740;116353;-79
2023/07/15 11:28:10;;;;;;;2.30;2.10;;;40.40;21.60;;;;;;20548;6801;304702;-81
2023/07/15 11:31:05;;;;;;;1.70;1.70;;;40.60;21.20;;;;;;20821;6740;118905;-78
2023/07/15 11:33:43;;;;;;;2.37;2.20;;;40.30;21.20;;;;;;20584;6740;278274;-78
2023/07/15 11:36:33;;;;;;;2.20;2.10;;;40.20;21.00;;;;;;20751;6740;67351;-79
2023/07/15 11:39:34;;;;;;;2.50;2.13;;;40.00;21.40;;;;;;20607;6740;308196;-81
2023/07/15 11:42:31;;;;;;;3.30;2.10;;;40.10;21.90;;;;;;20852;6740;67323;-80
2023/07/15 11:45:10;;;;;;;2.00;2.00;;;40.10;22.00;;;;;;20656;6740;120510;-79
2023/07/15 11:47:48;;;;;;;2.37;2.17;;;40.00;22.10;;;;;;20572;6740;311559;-79
2023/07/15 11:50:30;;;;;;;2.23;2.13;;;40.10;21.50;;;;;;20774;6740;119111;-80
2023/07/15 11:53:05;;;;;;;2.00;1.80;;;40.10;21.20;;;;;;20556;6802;122101;-74
2023/07/15 11:55:42;;;;;;;3.03;2.00;;;39.90;21.30;;;;;;20676;6740;117976;-75
2023/07/15 11:58:39;;;;;;;2.25;2.15;;;39.70;21.40;;;;;;20638;6740;276721;-74
2023/07/15 12:01:25;;;;;;;2.40;2.20;;;39.80;21.10;;;;;;20592;6802;305748;-75
2023/07/15 12:03:57;;;;;;;2.17;2.07;;;40.00;20.90;;;;;;20564;6740;289374;-77
2023/07/15 12:06:33;;;;;;;2.37;2.27;;;40.10;20.90;;;;;;20848;6740;122601;-73
2023/07/15 12:09:11;;;;;;;2.17;1.98;;;39.90;20.90;;;;;;20834;6740;117388;-73
2023/07/15 12:11:47;;;;;;;2.53;2.00;;;39.70;21.00;;;;;;20808;6740;118218;-77
2023/07/15 12:14:24;;;;;;;2.20;2.00;;;39.50;21.30;;;;;;20793;6740;117133;-77
2023/07/15 12:17:02;;;;;;;2.23;2.13;;;39.20;21.40;;;;;;20832;6740;118780;-73
2023/07/15 12:19:35;;;;;;;2.43;2.27;;;39.00;21.90;;;;;;20597;6740;312722;-73
2023/07/15 12:22:11;;;;;;;2.03;1.98;;;39.00;22.20;;;;;;20818;6740;117589;-74
2023/07/15 12:24:47;;;;;;;2.62;2.20;;;38.90;22.00;;;;;;20491;6740;343669;-74
2023/07/15 12:27:22;;;;;;;2.00;1.90;;;38.90;22.40;;;;;;20837;6740;117739;-75
2023/07/15 12:30:02;;;;;;;2.83;2.17;;;38.80;22.00;;;;;;20614;6740;306600;-77
2023/07/15 12:32:35;;;;;;;2.10;2.00;;;38.80;21.60;;;;;;20627;6740;310731;-76
2023/07/15 12:35:10;;;;;;;2.10;2.00;;;39.00;21.40;;;;;;20445;6740;280009;-75
2023/07/15 12:37:50;;;;;;;2.45;2.22;;;39.40;21.20;;;;;;20564;6740;311157;-76
2023/07/15 12:40:26;;;;;;;2.20;2.00;;;39.40;21.20;;;;;;20638;6740;335460;-77
2023/07/15 12:43:01;;;;;;;1.83;1.83;;;39.50;22.40;;;;;;20773;6740;119778;-74
2023/07/15 12:45:37;;;;;;;2.05;1.95;;;39.40;21.70;;;;;;20381;6740;342469;-75
2023/07/15 12:48:13;;;;;;;2.20;1.90;;;39.40;21.70;;;;;;20834;6740;118289;-75
2023/07/15 12:50:49;;;;;;;2.00;1.90;;;39.30;21.60;;;;;;20707;6740;118152;-76
2023/07/15 12:53:24;;;;;;;1.97;1.83;;;39.00;21.60;;;;;;20823;6740;117633;-74
2023/07/15 12:56:03;;;;;;;2.43;1.73;;;38.80;21.80;;;;;;20812;6740;119534;-75
2023/07/15 12:58:40;;;;;;;1.70;1.60;;;38.60;21.50;;;;;;20606;6740;310703;-74
2023/07/15 13:01:16;;;;;;;2.10;2.00;;;38.80;20.60;;;;;;20788;6740;115450;-72
2023/07/15 13:03:51;;;;;;;1.87;1.80;;;38.80;20.70;;;;;;20587;6740;312779;-73
2023/07/15 13:06:33;;;;;;;1.70;1.60;;;39.00;20.40;;;;;;21296;6572;299720;31
2023/07/15 13:08:58;;;;;;;1.53;1.43;;;39.20;19.80;;;;;;21466;6588;64926;31